Time;durP1;ratioP1;P1;durP2;ratioP2;P2;SDS_P1;SDS_P2;PMS_P1;PMS_P2;Temp;Humidity;BMP_temperature;BMP_pressure;BME280_temperature;BME280_humidity;BME280_pressure;Samples;Min_cycle;Max_cycle;Signal;HPM_P1;HPM_P2
2021/01/21 00:00:48;;;;;;;10.88;9.70;;;;;;;;;;5073168;28;20389;-62
2021/01/21 00:03:15;;;;;;;14.10;10.20;;;;;;;;;;5073069;28;20024;-63
2021/01/21 00:05:42;;;;;;;10.50;9.50;;;;;;;;;;5073027;28;20377;-62
2021/01/21 00:08:09;;;;;;;10.10;9.30;;;;;;;;;;5073057;28;20072;-61
2021/01/21 00:10:36;;;;;;;10.13;9.10;;;;;;;;;;5073114;28;20071;-62
2021/01/21 00:13:04;;;;;;;10.82;9.88;;;;;;;;;;5073019;28;20496;-62
2021/01/21 00:15:31;;;;;;;10.68;9.75;;;;;;;;;;5071729;28;20021;-62
2021/01/21 00:18:00;;;;;;;10.82;9.90;;;;;;;;;;5073119;28;20063;-62
2021/01/21 00:20:27;;;;;;;10.75;9.77;;;;;;;;;;5072885;28;20029;-62
2021/01/21 00:22:54;;;;;;;11.32;10.23;;;;;;;;;;5072986;28;20027;-62
2021/01/21 00:25:21;;;;;;;10.35;9.65;;;;;;;;;;5072984;28;20029;-62
2021/01/21 00:27:51;;;;;;;10.70;9.80;;;;;;;;;;5072677;28;20051;-60
2021/01/21 00:30:18;;;;;;;10.77;9.73;;;;;;;;;;5072878;28;20028;-63
2021/01/21 00:32:46;;;;;;;9.93;9.20;;;;;;;;;;5072851;28;20028;-63
2021/01/21 00:35:14;;;;;;;9.98;9.18;;;;;;;;;;5072786;28;20077;-62
2021/01/21 00:37:41;;;;;;;10.30;9.50;;;;;;;;;;5072709;28;20402;-63
2021/01/21 00:40:09;;;;;;;9.52;8.73;;;;;;;;;;5074077;28;20025;-62
2021/01/21 00:42:36;;;;;;;10.60;9.27;;;;;;;;;;5077043;28;20032;-62
2021/01/21 00:45:03;;;;;;;9.38;8.77;;;;;;;;;;5076673;28;20398;-61
2021/01/21 00:47:31;;;;;;;10.85;9.95;;;;;;;;;;5076746;28;20025;-61
2021/01/21 00:49:58;;;;;;;10.52;9.45;;;;;;;;;;5076713;28;20503;-62
2021/01/21 00:52:25;;;;;;;9.80;9.00;;;;;;;;;;5076528;28;20025;-67
2021/01/21 00:54:52;;;;;;;10.55;9.60;;;;;;;;;;5076598;28;20023;-61
2021/01/21 00:57:19;;;;;;;10.32;9.48;;;;;;;;;;5076386;28;20055;-61
2021/01/21 00:59:47;;;;;;;10.23;9.50;;;;;;;;;;5076397;28;20025;-62
2021/01/21 01:02:14;;;;;;;10.82;9.63;;;;;;;;;;5076280;28;20141;-61
2021/01/21 01:04:41;;;;;;;10.60;9.57;;;;;;;;;;5076325;28;20033;-61
2021/01/21 01:07:08;;;;;;;11.73;9.57;;;;;;;;;;5076017;28;20086;-62
2021/01/21 01:09:35;;;;;;;10.70;9.45;;;;;;;;;;5076153;28;20487;-62
2021/01/21 01:12:03;;;;;;;12.20;9.35;;;;;;;;;;5076124;28;20473;-61
2021/01/21 01:14:30;;;;;;;10.90;9.73;;;;;;;;;;5076332;28;20103;-61
2021/01/21 01:16:57;;;;;;;11.68;9.93;;;;;;;;;;5076204;28;20032;-61
2021/01/21 01:19:24;;;;;;;10.27;9.15;;;;;;;;;;5076187;28;20029;-62
2021/01/21 01:21:51;;;;;;;16.88;10.35;;;;;;;;;;5076324;28;20107;-62
2021/01/21 01:24:20;;;;;;;11.02;9.20;;;;;;;;;;5076147;28;20435;-62
2021/01/21 01:26:47;;;;;;;10.68;9.70;;;;;;;;;;5076209;28;20020;-62
2021/01/21 01:29:14;;;;;;;12.40;9.32;;;;;;;;;;5076007;28;20020;-62
2021/01/21 01:31:41;;;;;;;13.68;9.18;;;;;;;;;;5075944;28;20423;-61
2021/01/21 01:34:08;;;;;;;14.07;9.88;;;;;;;;;;5075900;28;20020;-61
2021/01/21 01:36:36;;;;;;;14.02;10.50;;;;;;;;;;5075921;28;20024;-62
2021/01/21 01:39:03;;;;;;;19.58;10.48;;;;;;;;;;5075726;28;20096;-63
2021/01/21 01:41:30;;;;;;;19.83;10.80;;;;;;;;;;5075705;28;20029;-61
2021/01/21 01:43:57;;;;;;;10.35;9.40;;;;;;;;;;5076107;28;20389;-61
2021/01/21 01:46:26;;;;;;;11.23;10.30;;;;;;;;;;5075647;28;20024;-63
2021/01/21 01:48:56;;;;;;;10.50;9.60;;;;;;;;;;5075681;28;20068;-62
2021/01/21 01:51:23;;;;;;;;;;;;;;;;;;5075225;28;20477;-62
2021/01/21 01:53:50;;;;;;;10.73;9.63;;;;;;;;;;5075652;28;20408;-62
2021/01/21 01:56:17;;;;;;;12.48;10.07;;;;;;;;;;5075616;28;20149;-62
2021/01/21 01:58:45;;;;;;;10.65;9.60;;;;;;;;;;5075627;28;20047;-61
2021/01/21 02:01:12;;;;;;;11.48;10.27;;;;;;;;;;5075368;28;20024;-60
2021/01/21 02:03:39;;;;;;;10.18;9.18;;;;;;;;;;5073970;28;20032;-61
2021/01/21 02:06:07;;;;;;;11.05;9.90;;;;;;;;;;5075058;28;20048;-60
2021/01/21 02:08:34;;;;;;;11.32;9.77;;;;;;;;;;5075212;28;20040;-62
2021/01/21 02:11:04;;;;;;;11.27;10.15;;;;;;;;;;5075181;28;20033;-61
2021/01/21 02:13:40;;;;;;;11.27;10.13;;;;;;;;;;5075143;28;20029;-61
2021/01/21 02:16:16;;;;;;;12.07;9.77;;;;;;;;;;5075227;28;20036;-61
2021/01/21 02:18:46;;;;;;;11.65;9.85;;;;;;;;;;5075202;28;20096;-62
2021/01/21 02:21:29;;;;;;;12.93;10.20;;;;;;;;;;5074995;28;20036;-62
2021/01/21 02:24:13;;;;;;;15.30;10.57;;;;;;;;;;5075149;28;20380;-61
2021/01/21 02:26:51;;;;;;;20.65;11.07;;;;;;;;;;5074901;28;20052;-61
2021/01/21 02:29:24;;;;;;;10.98;10.00;;;;;;;;;;5073565;28;20028;-61
2021/01/21 02:32:00;;;;;;;12.88;9.85;;;;;;;;;;5074680;28;20481;-61
2021/01/21 02:34:47;;;;;;;14.10;9.73;;;;;;;;;;5074732;28;20027;-61
2021/01/21 02:37:24;;;;;;;10.85;9.35;;;;;;;;;;5033624;28;20028;-61
2021/01/21 02:39:54;;;;;;;11.32;9.27;;;;;;;;;;5074859;28;20472;-61
2021/01/21 02:42:21;;;;;;;10.38;9.35;;;;;;;;;;5074560;28;20039;-61
2021/01/21 02:44:49;;;;;;;9.90;8.90;;;;;;;;;;5074474;28;20473;-61
2021/01/21 02:47:17;;;;;;;10.30;9.30;;;;;;;;;;5074464;28;20461;-61
2021/01/21 02:49:47;;;;;;;13.65;9.40;;;;;;;;;;5074356;28;20488;-61
2021/01/21 02:52:25;;;;;;;10.55;9.55;;;;;;;;;;5074564;28;20043;-62
2021/01/21 02:55:01;;;;;;;12.32;10.25;;;;;;;;;;5073106;28;20125;-62
2021/01/21 02:57:48;;;;;;;12.55;9.65;;;;;;;;;;5074286;28;20389;-61
2021/01/21 03:00:15;;;;;;;14.52;9.70;;;;;;;;;;5074301;28;20040;-62
2021/01/21 03:02:45;;;;;;;20.50;10.75;;;;;;;;;;5074037;28;20032;-62
2021/01/21 03:05:14;;;;;;;11.43;10.00;;;;;;;;;;5074000;28;20488;-61
2021/01/21 03:07:41;;;;;;;9.85;9.05;;;;;;;;;;5073883;28;20483;-62
2021/01/21 03:10:09;;;;;;;23.48;11.52;;;;;;;;;;5074115;28;20062;-61
2021/01/21 03:12:36;;;;;;;11.57;10.52;;;;;;;;;;5074004;28;20013;-62
2021/01/21 03:15:05;;;;;;;11.02;10.07;;;;;;;;;;5074053;28;20023;-63
2021/01/21 03:17:32;;;;;;;15.18;10.38;;;;;;;;;;5073882;28;20036;-66
2021/01/21 03:20:00;;;;;;;27.05;12.35;;;;;;;;;;5073931;28;20428;-61
2021/01/21 03:22:27;;;;;;;11.60;10.20;;;;;;;;;;5073766;28;20108;-62
2021/01/21 03:24:54;;;;;;;10.65;9.63;;;;;;;;;;5073753;28;20028;-61
2021/01/21 03:27:21;;;;;;;11.35;10.48;;;;;;;;;;5073665;28;20466;-62
2021/01/21 03:29:48;;;;;;;13.52;10.60;;;;;;;;;;5073677;28;20023;-62
2021/01/21 03:32:15;;;;;;;11.48;10.55;;;;;;;;;;5073707;28;20091;-62
2021/01/21 03:34:42;;;;;;;10.80;9.90;;;;;;;;;;5073578;28;20055;-63
2021/01/21 03:37:09;;;;;;;11.27;10.18;;;;;;;;;;5073691;28;20017;-62
2021/01/21 03:39:36;;;;;;;11.88;10.60;;;;;;;;;;5073556;28;20066;-63
2021/01/21 03:42:04;;;;;;;13.65;10.70;;;;;;;;;;5073553;28;20104;-62
2021/01/21 03:44:31;;;;;;;11.63;10.63;;;;;;;;;;5073695;28;20028;-62
2021/01/21 03:46:58;;;;;;;11.50;10.35;;;;;;;;;;5073616;28;20031;-62
2021/01/21 03:49:25;;;;;;;12.43;10.40;;;;;;;;;;5073409;28;20100;-62
2021/01/21 03:51:52;;;;;;;12.27;10.50;;;;;;;;;;5073392;28;20032;-62
2021/01/21 03:54:20;;;;;;;10.98;9.95;;;;;;;;;;5073359;28;20032;-62
2021/01/21 03:56:47;;;;;;;10.38;9.48;;;;;;;;;;5073419;28;20050;-62
2021/01/21 03:59:14;;;;;;;10.50;9.50;;;;;;;;;;5073176;28;20060;-63
2021/01/21 04:01:41;;;;;;;10.38;9.40;;;;;;;;;;5073326;28;20043;-67
2021/01/21 04:04:08;;;;;;;14.38;10.32;;;;;;;;;;5073112;28;20362;-62
2021/01/21 04:06:35;;;;;;;10.73;9.73;;;;;;;;;;5072879;28;20050;-61
2021/01/21 04:09:02;;;;;;;12.50;10.10;;;;;;;;;;5073066;28;20078;-61
2021/01/21 04:11:30;;;;;;;10.75;9.75;;;;;;;;;;5073146;28;20091;-61
2021/01/21 04:13:57;;;;;;;11.13;9.90;;;;;;;;;;5073111;28;20515;-61
2021/01/21 04:16:24;;;;;;;10.48;9.43;;;;;;;;;;5072581;28;20024;-61
2021/01/21 04:18:51;;;;;;;10.82;9.55;;;;;;;;;;5073041;28;20029;-61
2021/01/21 04:21:18;;;;;;;10.50;9.50;;;;;;;;;;5073127;28;20032;-62
2021/01/21 04:23:46;;;;;;;11.15;10.13;;;;;;;;;;5073017;28;20384;-63
2021/01/21 04:26:13;;;;;;;10.27;9.27;;;;;;;;;;5072999;28;20119;-62
2021/01/21 04:28:40;;;;;;;10.05;9.35;;;;;;;;;;5072928;28;20021;-62
2021/01/21 04:31:07;;;;;;;10.23;9.32;;;;;;;;;;5072875;28;20487;-62
2021/01/21 04:33:34;;;;;;;10.10;9.30;;;;;;;;;;5072981;28;20469;-63
2021/01/21 04:36:01;;;;;;;10.70;9.68;;;;;;;;;;5072870;28;20025;-62
2021/01/21 04:38:28;;;;;;;9.48;8.68;;;;;;;;;;5072905;28;20029;-62
2021/01/21 04:40:56;;;;;;;10.05;9.25;;;;;;;;;;5072917;28;20029;-63
2021/01/21 04:43:23;;;;;;;9.82;9.13;;;;;;;;;;5072847;28;20021;-62
2021/01/21 04:45:50;;;;;;;10.77;9.07;;;;;;;;;;5073071;28;20017;-63
2021/01/21 04:48:17;;;;;;;9.60;8.75;;;;;;;;;;5072772;28;20052;-66
2021/01/21 04:50:45;;;;;;;9.75;8.55;;;;;;;;;;5072861;28;20020;-62
2021/01/21 04:53:12;;;;;;;9.35;8.43;;;;;;;;;;5072753;28;20044;-63
2021/01/21 04:55:44;;;;;;;9.77;8.30;;;;;;;;;;5072655;28;20380;-63
2021/01/21 04:58:17;;;;;;;9.05;8.15;;;;;;;;;;5072660;28;20032;-62
2021/01/21 05:00:45;;;;;;;9.18;8.38;;;;;;;;;;5072740;28;20028;-63
2021/01/21 05:03:12;;;;;;;8.95;8.13;;;;;;;;;;5072524;28;20104;-61
2021/01/21 05:05:40;;;;;;;9.07;8.05;;;;;;;;;;5072446;28;20021;-63
2021/01/21 05:08:07;;;;;;;9.50;8.60;;;;;;;;;;5072598;28;20036;-61
2021/01/21 05:10:35;;;;;;;9.38;8.48;;;;;;;;;;5072528;28;20025;-60
2021/01/21 05:13:02;;;;;;;9.25;8.48;;;;;;;;;;5072568;28;20473;-60
2021/01/21 05:15:29;;;;;;;11.63;8.82;;;;;;;;;;5072611;28;20021;-61
2021/01/21 05:17:57;;;;;;;11.05;9.98;;;;;;;;;;5072409;28;20039;-67
2021/01/21 05:20:25;;;;;;;10.15;9.30;;;;;;;;;;5072737;28;20037;-61
2021/01/21 05:23:01;;;;;;;10.85;9.85;;;;;;;;;;5072433;28;20431;-61
2021/01/21 05:25:28;;;;;;;10.18;9.15;;;;;;;;;;5072422;28;20017;-61
2021/01/21 05:27:57;;;;;;;9.00;8.35;;;;;;;;;;5074530;28;20032;-61
2021/01/21 05:30:28;;;;;;;9.75;8.93;;;;;;;;;;5076046;28;20020;-61
2021/01/21 05:32:55;;;;;;;9.93;9.02;;;;;;;;;;5076003;28;20500;-60
2021/01/21 05:35:23;;;;;;;11.82;9.40;;;;;;;;;;5075936;28;20082;-61
2021/01/21 05:37:57;;;;;;;9.40;8.57;;;;;;;;;;5075789;28;20021;-61
2021/01/21 05:40:25;;;;;;;10.00;9.18;;;;;;;;;;5075905;28;20021;-61
2021/01/21 05:42:55;;;;;;;10.30;9.43;;;;;;;;;;5075724;28;20108;-61
2021/01/21 05:45:24;;;;;;;10.95;9.27;;;;;;;;;;5075806;28;20096;-62
2021/01/21 05:48:00;;;;;;;10.25;9.50;;;;;;;;;;5075490;28;20083;-61
2021/01/21 05:50:28;;;;;;;9.60;8.82;;;;;;;;;;5074156;28;20108;-64
2021/01/21 05:52:56;;;;;;;10.85;9.85;;;;;;;;;;5075342;28;20030;-60
2021/01/21 05:55:32;;;;;;;10.55;9.77;;;;;;;;;;5075273;28;20092;-59
2021/01/21 05:57:59;;;;;;;10.18;9.35;;;;;;;;;;5075503;28;20108;-61
2021/01/21 06:00:27;;;;;;;10.40;9.60;;;;;;;;;;5075467;28;20058;-59
2021/01/21 06:02:54;;;;;;;11.13;10.10;;;;;;;;;;5075489;28;20036;-58
2021/01/21 06:05:22;;;;;;;12.18;9.93;;;;;;;;;;5075125;28;20032;-59
2021/01/21 06:07:50;;;;;;;10.35;9.43;;;;;;;;;;5075078;28;20041;-60
2021/01/21 06:10:18;;;;;;;10.20;9.27;;;;;;;;;;5075286;28;20104;-59
2021/01/21 06:12:45;;;;;;;11.20;9.70;;;;;;;;;;5073836;28;20020;-59
2021/01/21 06:15:16;;;;;;;10.45;9.23;;;;;;;;;;5075006;28;20024;-59
2021/01/21 06:17:44;;;;;;;9.68;8.73;;;;;;;;;;5075222;28;20070;-59
2021/01/21 06:20:12;;;;;;;10.18;9.25;;;;;;;;;;5075107;28;20031;-59
2021/01/21 06:22:43;;;;;;;10.18;9.30;;;;;;;;;;5075042;28;20027;-59
2021/01/21 06:25:16;;;;;;;11.00;8.93;;;;;;;;;;5074982;28;20024;-59
2021/01/21 06:27:44;;;;;;;10.15;9.07;;;;;;;;;;5074822;28;20024;-60
2021/01/21 06:30:14;;;;;;;10.43;9.50;;;;;;;;;;5074875;28;20021;-59
2021/01/21 06:32:50;;;;;;;9.93;9.02;;;;;;;;;;5073540;28;20032;-59
2021/01/21 06:35:20;;;;;;;9.90;9.00;;;;;;;;;;5074765;28;20027;-58
2021/01/21 06:37:54;;;;;;;9.50;8.90;;;;;;;;;;5074243;28;20488;-59
2021/01/21 06:40:22;;;;;;;9.27;8.68;;;;;;;;;;5074482;28;20059;-59
2021/01/21 06:42:57;;;;;;;9.98;9.07;;;;;;;;;;5074663;28;20033;-59
2021/01/21 06:45:24;;;;;;;9.68;8.98;;;;;;;;;;5074446;28;20107;-60
2021/01/21 06:47:51;;;;;;;10.10;9.13;;;;;;;;;;5074405;28;20066;-59
2021/01/21 06:50:19;;;;;;;9.80;9.00;;;;;;;;;;5074760;28;20028;-59
2021/01/21 06:52:47;;;;;;;9.70;8.90;;;;;;;;;;5074468;28;20043;-60
2021/01/21 06:55:14;;;;;;;9.55;8.80;;;;;;;;;;5073181;28;20026;-58
2021/01/21 06:57:42;;;;;;;9.52;8.60;;;;;;;;;;5074498;28;20099;-60
2021/01/21 07:00:12;;;;;;;8.90;8.30;;;;;;;;;;5074167;28;20025;-58
2021/01/21 07:02:38;;;;;;;;;;;;;;;;;;5074575;28;20016;-59
2021/01/21 07:05:15;;;;;;;9.43;8.60;;;;;;;;;;5074109;28;20015;-59
2021/01/21 07:07:55;;;;;;;9.30;8.70;;;;;;;;;;5073937;28;20049;-61
2021/01/21 07:10:28;;;;;;;9.43;8.60;;;;;;;;;;5073911;28;20028;-59
2021/01/21 07:12:56;;;;;;;9.40;8.60;;;;;;;;;;5072637;28;20032;-60
2021/01/21 07:15:50;;;;;;;8.77;8.10;;;;;;;;;;5072571;28;20028;-59
2021/01/21 07:18:18;;;;;;;8.75;8.10;;;;;;;;;;5069398;28;20032;-58
2021/01/21 07:21:02;;;;;;;10.23;8.80;;;;;;;;;;5073947;28;20021;-58
2021/01/21 07:23:43;;;;;;;9.25;8.55;;;;;;;;;;5073808;28;20099;-59
2021/01/21 07:26:19;;;;;;;9.80;8.93;;;;;;;;;;5073662;28;20016;-59
2021/01/21 07:29:01;;;;;;;11.48;10.43;;;;;;;;;;5073691;28;20036;-59
2021/01/21 07:31:29;;;;;;;9.25;8.50;;;;;;;;;;5073708;28;20032;-62
2021/01/21 07:34:14;;;;;;;10.05;8.48;;;;;;;;;;5073564;28;20024;-59
2021/01/21 07:36:41;;;;;;;9.27;8.43;;;;;;;;;;5073432;28;20086;-60
2021/01/21 07:39:09;;;;;;;9.50;8.68;;;;;;;;;;5073371;28;20111;-59
2021/01/21 07:41:48;;;;;;;10.05;9.05;;;;;;;;;;5073472;28;20013;-59
2021/01/21 07:44:15;;;;;;;10.90;9.90;;;;;;;;;;5073461;28;20012;-59
2021/01/21 07:46:42;;;;;;;11.52;9.90;;;;;;;;;;5073487;28;20025;-58
2021/01/21 07:49:28;;;;;;;11.57;10.48;;;;;;;;;;5073133;28;20384;-59
2021/01/21 07:52:07;;;;;;;11.13;10.02;;;;;;;;;;5073381;28;20040;-59
2021/01/21 07:54:52;;;;;;;11.52;10.52;;;;;;;;;;5073389;28;20031;-60
2021/01/21 07:57:22;;;;;;;10.73;9.63;;;;;;;;;;5073255;28;20108;-60
2021/01/21 07:59:49;;;;;;;;;;;;;;;;;;5073762;28;20024;-59
2021/01/21 08:02:16;;;;;;;13.13;9.68;;;;;;;;;;5073369;28;19904;-58
2021/01/21 08:04:58;;;;;;;10.10;9.10;;;;;;;;;;5073178;28;20100;-59
2021/01/21 08:07:25;;;;;;;10.85;9.75;;;;;;;;;;5071969;28;20098;-59
2021/01/21 08:10:07;;;;;;;10.77;9.05;;;;;;;;;;5073159;28;20048;-59
2021/01/21 08:12:34;;;;;;;10.60;9.50;;;;;;;;;;5073524;28;20020;-59
2021/01/21 08:15:02;;;;;;;11.30;9.63;;;;;;;;;;5073033;28;20257;-59
2021/01/21 08:17:29;;;;;;;10.88;9.90;;;;;;;;;;5073171;28;20051;-59
2021/01/21 08:19:56;;;;;;;10.68;9.57;;;;;;;;;;5073044;28;20472;-58
2021/01/21 08:22:24;;;;;;;10.50;9.35;;;;;;;;;;5072901;28;20024;-58
2021/01/21 08:25:01;;;;;;;12.95;10.65;;;;;;;;;;5073046;28;20016;-59
2021/01/21 08:27:44;;;;;;;13.55;10.00;;;;;;;;;;5072947;28;20024;-59
2021/01/21 08:30:19;;;;;;;12.13;9.90;;;;;;;;;;5071358;28;20032;-59
2021/01/21 08:32:46;;;;;;;11.32;10.10;;;;;;;;;;5072869;28;20020;-60
2021/01/21 08:35:18;;;;;;;10.85;9.88;;;;;;;;;;5072789;28;20056;-58
2021/01/21 08:37:45;;;;;;;11.13;10.10;;;;;;;;;;5072773;28;20427;-59
2021/01/21 08:40:13;;;;;;;11.50;10.40;;;;;;;;;;5073077;28;20083;-60
2021/01/21 08:42:41;;;;;;;11.10;10.00;;;;;;;;;;5072830;28;20028;-60
2021/01/21 08:45:08;;;;;;;10.60;9.60;;;;;;;;;;5072822;28;20096;-61
2021/01/21 08:47:42;;;;;;;11.07;9.98;;;;;;;;;;5072669;28;20337;-62
2021/01/21 08:50:09;;;;;;;11.00;9.70;;;;;;;;;;5072793;28;20114;-61
2021/01/21 08:52:36;;;;;;;12.73;10.48;;;;;;;;;;5072846;28;20421;-61
2021/01/21 08:55:04;;;;;;;11.00;9.90;;;;;;;;;;5072635;28;20024;-61
2021/01/21 08:57:32;;;;;;;11.80;10.02;;;;;;;;;;5072423;28;20505;-61
2021/01/21 09:00:11;;;;;;;11.35;9.60;;;;;;;;;;5072693;28;20017;-61
2021/01/21 09:02:42;;;;;;;13.73;9.97;;;;;;;;;;5076796;28;20095;-61
2021/01/21 09:05:08;;;;;;;;;;;;;;;;;;5077288;28;20049;-61
2021/01/21 09:07:35;;;;;;;11.65;10.30;;;;;;;;;;5076477;28;19924;-62
2021/01/21 09:10:12;;;;;;;17.20;10.48;;;;;;;;;;5075412;28;20025;-62
2021/01/21 09:12:40;;;;;;;11.55;10.35;;;;;;;;;;5076140;28;20021;-62
2021/01/21 09:15:08;;;;;;;12.60;10.10;;;;;;;;;;5076398;28;20073;-62
2021/01/21 09:17:36;;;;;;;11.98;10.73;;;;;;;;;;5076181;28;20385;-62
2021/01/21 09:20:18;;;;;;;12.32;10.77;;;;;;;;;;5076010;28;20021;-62
2021/01/21 09:22:46;;;;;;;12.68;11.35;;;;;;;;;;5076490;28;20021;-62
2021/01/21 09:25:13;;;;;;;17.30;11.52;;;;;;;;;;5075947;28;20024;-63
2021/01/21 09:27:41;;;;;;;12.93;10.93;;;;;;;;;;5075745;28;20047;-62
2021/01/21 09:30:12;;;;;;;14.13;11.32;;;;;;;;;;5075688;28;20012;-63
2021/01/21 09:32:40;;;;;;;17.05;11.82;;;;;;;;;;5075658;28;20032;-63
2021/01/21 09:35:17;;;;;;;12.35;11.05;;;;;;;;;;5075775;28;20392;-63
2021/01/21 09:37:54;;;;;;;19.23;11.50;;;;;;;;;;5075743;28;20021;-62
2021/01/21 09:40:24;;;;;;;12.73;11.43;;;;;;;;;;5075802;28;20103;-63
2021/01/21 09:42:58;;;;;;;13.52;12.02;;;;;;;;;;5075715;28;20021;-62
2021/01/21 09:45:26;;;;;;;12.60;11.35;;;;;;;;;;5075586;28;20060;-62
2021/01/21 09:47:53;;;;;;;14.68;11.98;;;;;;;;;;5075423;28;20025;-63
2021/01/21 09:50:21;;;;;;;11.93;10.73;;;;;;;;;;5075727;28;20569;-62
2021/01/21 09:52:49;;;;;;;12.80;11.55;;;;;;;;;;5075491;28;20027;-62
2021/01/21 09:55:16;;;;;;;11.55;10.30;;;;;;;;;;5075594;28;20025;-63
2021/01/21 09:57:44;;;;;;;14.75;11.70;;;;;;;;;;5075308;28;20024;-64
2021/01/21 10:00:12;;;;;;;12.93;10.40;;;;;;;;;;5075706;28;20367;-63
2021/01/21 10:02:39;;;;;;;14.18;10.90;;;;;;;;;;5075307;28;20044;-64
2021/01/21 10:05:07;;;;;;;14.05;11.20;;;;;;;;;;5075296;28;20049;-63
2021/01/21 10:07:34;;;;;;;16.50;11.15;;;;;;;;;;5075073;28;20112;-64
2021/01/21 10:10:01;;;;;;;11.93;10.50;;;;;;;;;;5075349;28;20499;-63
2021/01/21 10:12:28;;;;;;;12.10;10.73;;;;;;;;;;5074445;28;20017;-64
2021/01/21 10:14:58;;;;;;;15.27;10.95;;;;;;;;;;5075106;28;20024;-62
2021/01/21 10:17:25;;;;;;;12.57;11.10;;;;;;;;;;5074951;28;20024;-63
2021/01/21 10:19:53;;;;;;;16.15;12.30;;;;;;;;;;5075006;28;20017;-66
2021/01/21 10:22:20;;;;;;;14.68;10.95;;;;;;;;;;5074973;28;20024;-65
2021/01/21 10:24:48;;;;;;;13.43;10.93;;;;;;;;;;5075072;28;20380;-62
2021/01/21 10:27:19;;;;;;;12.45;11.15;;;;;;;;;;5073596;28;20050;-63
2021/01/21 10:29:46;;;;;;;11.90;10.77;;;;;;;;;;5073814;28;20033;-62
2021/01/21 10:32:13;;;;;;;13.90;11.10;;;;;;;;;;5074531;28;20085;-63
2021/01/21 10:34:40;;;;;;;11.68;9.93;;;;;;;;;;5074738;28;20024;-63
2021/01/21 10:37:07;;;;;;;13.77;9.73;;;;;;;;;;5074675;28;20028;-62
2021/01/21 10:39:35;;;;;;;12.43;10.88;;;;;;;;;;5074623;28;20066;-63
2021/01/21 10:42:02;;;;;;;12.05;9.48;;;;;;;;;;5074617;28;20021;-63
2021/01/21 10:44:29;;;;;;;14.65;10.20;;;;;;;;;;5074471;28;20021;-63
2021/01/21 10:46:56;;;;;;;18.50;10.60;;;;;;;;;;5074521;28;20055;-62
2021/01/21 10:49:23;;;;;;;13.40;11.63;;;;;;;;;;5074388;28;20024;-63
2021/01/21 10:51:50;;;;;;;14.07;11.55;;;;;;;;;;5074314;28;20056;-62
2021/01/21 10:54:17;;;;;;;14.82;11.10;;;;;;;;;;5074375;28;20024;-63
2021/01/21 10:56:45;;;;;;;14.30;11.35;;;;;;;;;;5074012;28;20028;-64
2021/01/21 10:59:12;;;;;;;13.57;12.15;;;;;;;;;;5074103;28;20411;-64
2021/01/21 11:01:39;;;;;;;14.38;12.13;;;;;;;;;;5074210;28;20055;-63
2021/01/21 11:04:06;;;;;;;19.60;12.75;;;;;;;;;;5074243;28;20385;-62
2021/01/21 11:06:33;;;;;;;14.75;12.68;;;;;;;;;;5073880;28;20037;-63
2021/01/21 11:09:00;;;;;;;15.48;11.85;;;;;;;;;;5074055;28;20423;-62
2021/01/21 11:11:28;;;;;;;14.77;12.65;;;;;;;;;;5073996;28;20031;-63
2021/01/21 11:13:55;;;;;;;14.32;12.32;;;;;;;;;;5074021;28;20129;-63
2021/01/21 11:16:22;;;;;;;14.50;13.00;;;;;;;;;;5073953;28;20031;-63
2021/01/21 11:18:50;;;;;;;13.68;12.27;;;;;;;;;;5073812;28;20036;-64
2021/01/21 11:21:18;;;;;;;14.63;12.65;;;;;;;;;;5073665;28;20448;-64
2021/01/21 11:23:45;;;;;;;17.30;12.60;;;;;;;;;;5073369;28;20028;-62
2021/01/21 11:26:12;;;;;;;14.32;11.93;;;;;;;;;;5072949;28;20028;-63
2021/01/21 11:28:39;;;;;;;16.17;13.00;;;;;;;;;;5073890;28;20477;-62
2021/01/21 11:31:06;;;;;;;15.70;12.25;;;;;;;;;;5073716;28;20101;-63
2021/01/21 11:33:33;;;;;;;18.85;12.70;;;;;;;;;;5073673;28;20022;-63
2021/01/21 11:36:00;;;;;;;16.00;11.98;;;;;;;;;;5073609;28;20380;-63
2021/01/21 11:38:28;;;;;;;21.20;13.52;;;;;;;;;;5073463;28;20080;-62
2021/01/21 11:40:55;;;;;;;15.18;12.93;;;;;;;;;;5073538;28;20017;-62
2021/01/21 11:43:22;;;;;;;16.30;12.70;;;;;;;;;;5072112;28;20033;-63
2021/01/21 11:45:49;;;;;;;17.80;13.10;;;;;;;;;;5073497;28;20093;-62
2021/01/21 11:48:17;;;;;;;15.20;13.60;;;;;;;;;;5073188;28;20027;-62
2021/01/21 11:50:45;;;;;;;15.10;12.93;;;;;;;;;;5073464;28;20032;-63
2021/01/21 11:53:12;;;;;;;20.55;14.10;;;;;;;;;;5073312;28;20105;-62
2021/01/21 11:55:39;;;;;;;16.75;14.18;;;;;;;;;;5073297;28;20055;-65
2021/01/21 11:58:06;;;;;;;18.70;14.57;;;;;;;;;;5073229;28;20028;-62
2021/01/21 12:00:33;;;;;;;18.73;14.02;;;;;;;;;;5073203;28;20103;-63
2021/01/21 12:03:00;;;;;;;17.23;14.00;;;;;;;;;;5073232;28;20532;-62
2021/01/21 12:05:27;;;;;;;15.40;13.75;;;;;;;;;;5073059;28;20099;-62
2021/01/21 12:07:55;;;;;;;19.85;14.27;;;;;;;;;;5072888;28;20123;-62
2021/01/21 12:10:22;;;;;;;16.58;13.95;;;;;;;;;;5073036;28;20012;-63
2021/01/21 12:12:49;;;;;;;20.05;14.70;;;;;;;;;;5073261;28;20025;-62
2021/01/21 12:15:19;;;;;;;21.92;14.25;;;;;;;;;;5073130;28;20094;-62
2021/01/21 12:17:46;;;;;;;;;;;;;;;;;;5073598;28;20123;-63
2021/01/21 12:20:13;;;;;;;23.30;14.43;;;;;;;;;;5073098;28;19904;-63
2021/01/21 12:22:43;;;;;;;21.58;14.75;;;;;;;;;;5072953;28;20074;-62
2021/01/21 12:25:20;;;;;;;23.35;14.85;;;;;;;;;;5073019;28;20029;-64
2021/01/21 12:27:47;;;;;;;18.10;14.43;;;;;;;;;;5072810;28;20074;-62
2021/01/21 12:30:15;;;;;;;21.13;15.15;;;;;;;;;;5072896;28;20508;-63
2021/01/21 12:32:42;;;;;;;17.15;14.82;;;;;;;;;;5072805;28;20431;-64
2021/01/21 12:35:09;;;;;;;19.30;14.98;;;;;;;;;;5072875;28;20547;-62
2021/01/21 12:37:37;;;;;;;20.30;15.70;;;;;;;;;;5075274;28;20024;-62
2021/01/21 12:40:05;;;;;;;25.00;15.23;;;;;;;;;;5076993;28;20031;-62
2021/01/21 12:42:33;;;;;;;24.63;15.85;;;;;;;;;;5076870;28;20025;-62
2021/01/21 12:45:00;;;;;;;24.30;16.15;;;;;;;;;;5076878;28;20016;-62
2021/01/21 12:47:27;;;;;;;20.80;16.15;;;;;;;;;;5076815;28;20028;-64
2021/01/21 12:49:54;;;;;;;23.58;17.15;;;;;;;;;;5076849;28;20028;-62
2021/01/21 12:52:21;;;;;;;18.48;16.42;;;;;;;;;;5076765;28;20028;-63
2021/01/21 12:54:48;;;;;;;23.90;17.00;;;;;;;;;;5076650;28;20017;-64
2021/01/21 12:57:19;;;;;;;20.65;16.33;;;;;;;;;;5076614;28;20017;-63
2021/01/21 12:59:46;;;;;;;23.92;16.80;;;;;;;;;;5076693;28;20031;-63
2021/01/21 13:02:14;;;;;;;23.45;16.85;;;;;;;;;;5076647;28;20093;-63
2021/01/21 13:04:42;;;;;;;22.83;15.60;;;;;;;;;;5076609;28;20090;-63
2021/01/21 13:07:09;;;;;;;21.73;15.70;;;;;;;;;;5076328;28;20409;-63
2021/01/21 13:09:36;;;;;;;23.05;16.30;;;;;;;;;;5076246;28;20380;-62
2021/01/21 13:12:03;;;;;;;21.63;16.27;;;;;;;;;;5076467;28;20346;-62
2021/01/21 13:14:30;;;;;;;25.10;15.25;;;;;;;;;;5075012;28;20023;-62
2021/01/21 13:16:57;;;;;;;21.45;16.05;;;;;;;;;;5076266;28;20016;-62
2021/01/21 13:19:25;;;;;;;28.15;16.35;;;;;;;;;;5076172;28;20025;-63
2021/01/21 13:21:52;;;;;;;23.35;16.13;;;;;;;;;;5076071;28;20021;-63
2021/01/21 13:24:19;;;;;;;21.42;15.95;;;;;;;;;;5076081;28;20108;-63
2021/01/21 13:26:46;;;;;;;22.17;15.43;;;;;;;;;;5075946;28;20025;-63
2021/01/21 13:29:13;;;;;;;20.92;15.55;;;;;;;;;;5075949;28;20021;-62
2021/01/21 13:31:40;;;;;;;27.67;15.93;;;;;;;;;;5075934;28;20043;-63
2021/01/21 13:34:08;;;;;;;23.05;15.55;;;;;;;;;;5075810;28;20032;-63
2021/01/21 13:36:35;;;;;;;21.98;16.98;;;;;;;;;;5075813;28;20495;-67
2021/01/21 13:39:02;;;;;;;22.88;15.90;;;;;;;;;;5075792;28;20025;-65
2021/01/21 13:41:29;;;;;;;21.13;16.58;;;;;;;;;;5075934;28;20028;-63
2021/01/21 13:43:56;;;;;;;19.88;15.07;;;;;;;;;;5075768;28;20028;-63
2021/01/21 13:46:24;;;;;;;18.80;14.55;;;;;;;;;;5075657;28;20420;-63
2021/01/21 13:48:51;;;;;;;20.20;15.50;;;;;;;;;;5074455;28;20025;-63
2021/01/21 13:51:18;;;;;;;18.33;15.05;;;;;;;;;;5075813;28;20031;-64
2021/01/21 13:53:45;;;;;;;24.27;15.57;;;;;;;;;;5075619;28;20024;-64
2021/01/21 13:56:13;;;;;;;20.52;16.20;;;;;;;;;;5075533;28;20552;-63
2021/01/21 13:58:40;;;;;;;29.52;15.57;;;;;;;;;;5075442;28;20044;-61
2021/01/21 14:01:07;;;;;;;18.67;15.20;;;;;;;;;;5075470;28;20044;-62
2021/01/21 14:03:36;;;;;;;23.45;15.68;;;;;;;;;;5075194;28;20394;-62
2021/01/21 14:06:04;;;;;;;18.42;15.00;;;;;;;;;;5075316;28;20048;-63
2021/01/21 14:08:31;;;;;;;22.80;15.02;;;;;;;;;;5075291;28;20035;-63
2021/01/21 14:10:58;;;;;;;20.33;16.00;;;;;;;;;;5075267;28;20054;-63
2021/01/21 14:13:26;;;;;;;21.75;15.48;;;;;;;;;;5075210;28;20143;-63
2021/01/21 14:15:53;;;;;;;19.85;15.57;;;;;;;;;;5075153;28;20031;-63
2021/01/21 14:18:23;;;;;;;17.85;15.05;;;;;;;;;;5075217;28;20386;-62
2021/01/21 14:20:50;;;;;;;20.03;16.03;;;;;;;;;;5075010;28;20415;-62
2021/01/21 14:23:17;;;;;;;18.10;15.27;;;;;;;;;;5075131;28;20787;-68
2021/01/21 14:25:44;;;;;;;20.33;15.77;;;;;;;;;;5075019;28;20027;-62
2021/01/21 14:28:12;;;;;;;26.10;16.92;;;;;;;;;;5074867;28;20043;-62
2021/01/21 14:30:39;;;;;;;22.35;16.20;;;;;;;;;;5074947;28;20358;-63
2021/01/21 14:33:07;;;;;;;19.25;16.90;;;;;;;;;;5073543;28;20028;-62
2021/01/21 14:35:34;;;;;;;21.05;16.60;;;;;;;;;;5074791;28;20021;-62